Somerset, PA

9:36 AM EST on February 20, 2017 (GMT -0500)
Laurel Highlands | | Change Station

Elev 1932 ft 39.94 °N, 79.13 °W | Updated 9 seconds ago

Overcast
Overcast
47.7 °F
Feels Like 48 °F
N
0.2
Wind Variable Wind from South
Gusts 2.5 mph

Today
High -- | Low -- °F
--% Chance of Precip.
Yesterday
High -- | Low -- °F
Precip. -- in
Pressure 30.31 in
Visibility 4.0 miles
Clouds Mostly Cloudy 1100 ft
Windchill 48 °F
Dew Point 41 °F
Humidity 78%
Rainfall 0.00 in
Snow Depth Not available.
7:02 AM 5:58 PM
Waning Crescent, 33% visible
SPECI KLBE 201420Z 25006KT 4SM BR BKN011 08/08 A3031
Pressure 30.31 in
Visibility 4.0 miles
Clouds Mostly Cloudy 1100 ft
Windchill 48 °F
Dew Point 41 °F
Humidity 78%
Rainfall 0.00 in
Snow Depth Not available.
7:02 AM 5:58 PM
Waning Crescent, 33% visible
SPECI KLBE 201420Z 25006KT 4SM BR BKN011 08/08 A3031

Get Your Daily Forecast Email!

Thanks for signing up!

Be on the lookout for a verification email in your inbox.

You'll start receiving the daily forecast at 8 AM.

×

10-Day Weather Forecast

Almanac

Astronomy

Feb. 20, 2017 Rise Set
Actual Time
Civil Twilight
Nautical Twilight
Astronomical Twilight
Moon
Length of Visible Light
Length of Day
Tomorrow will be .
, % of the Moon is Illuminated

Today's Extremes

State Highs State Lows

Community

WunderPhotos

Upload Photos

1,962,540 photos uploaded!

WunderBlog® & News

Nearby

Air Quality

  Air Quality AQ Index Pollutant
Not available.

Snow Depth

Station Depth Elevation

Earthquake Activity

City Distance Mag. Time & Date
Minimum magnitude displayed is 2.5.

Coastal Water Temperatures

Place Temperature

Stations

Nearby Weather Stations

Station Location Temp. Windchill Dew Point Humidity Wind Precip. Elev Updated Type
                   

Watches & Warnings

There are currently no watches in effect.